Time;durP1;ratioP1;P1;durP2;ratioP2;P2;SDS_P1;SDS_P2;PMS_P1;PMS_P2;Temp;Humidity;BMP_temperature;BMP_pressure;BME280_temperature;BME280_humidity;BME280_pressure;Samples;Min_cycle;Max_cycle;Signal;HPM_P1;HPM_P2
2022/03/03 00:00:45;;;;;;;19.27;10.73;;;;;;;3.94;56.76;99533.56;5051448;28;20365;-49
2022/03/03 00:03:11;;;;;;;21.55;11.10;;;;;;;3.95;56.54;99533.41;5053588;28;20036;-48
2022/03/03 00:05:38;;;;;;;18.33;10.95;;;;;;;4.03;56.23;99533.41;5053628;28;20044;-49
2022/03/03 00:08:04;;;;;;;20.92;10.55;;;;;;;3.80;57.04;99532.44;5053395;28;20059;-49
2022/03/03 00:10:29;;;;;;;19.17;11.18;;;;;;;3.97;57.27;99530.63;5053451;28;20056;-51
2022/03/03 00:12:55;;;;;;;20.83;11.07;;;;;;;4.13;56.59;99530.59;5053662;28;20036;-49
2022/03/03 00:15:20;;;;;;;19.77;11.00;;;;;;;3.77;56.67;99517.81;5053360;28;20048;-48
2022/03/03 00:17:46;;;;;;;20.17;10.90;;;;;;;3.87;57.22;99528.97;5053200;28;20029;-48
2022/03/03 00:20:11;;;;;;;21.60;10.50;;;;;;;3.56;57.67;99528.81;5053158;28;20024;-50
2022/03/03 00:22:37;;;;;;;18.75;10.35;;;;;;;3.41;58.56;99515.47;5052053;28;20465;-48
2022/03/03 00:25:02;;;;;;;17.73;10.52;;;;;;;3.69;57.43;99515.16;5053013;28;20017;-48
2022/03/03 00:27:28;;;;;;;22.05;11.30;;;;;;;3.70;57.59;99516.81;5035456;28;20067;-51
2022/03/03 00:29:53;;;;;;;16.50;10.38;;;;;;;3.68;58.09;99516.97;5053138;28;20378;-48
2022/03/03 00:32:19;;;;;;;16.75;9.48;;;;;;;3.30;58.44;99515.78;5053163;28;20381;-48
2022/03/03 00:34:44;;;;;;;18.75;10.23;;;;;;;3.70;56.81;99507.09;5054415;28;20013;-48
2022/03/03 00:37:10;;;;;;;17.48;9.38;;;;;;;3.60;56.53;99508.22;5073831;28;20060;-49
2022/03/03 00:39:35;;;;;;;15.57;9.45;;;;;;;3.38;57.62;99502.63;5073536;28;20016;-49
2022/03/03 00:42:01;;;;;;;17.20;10.00;;;;;;;3.65;56.71;99511.19;5073278;28;20028;-49
2022/03/03 00:44:26;;;;;;;18.35;10.10;;;;;;;3.66;57.39;99518.13;5073485;28;20029;-49
2022/03/03 00:46:52;;;;;;;19.95;10.73;;;;;;;3.89;55.80;99521.72;5073014;28;20476;-48
2022/03/03 00:49:17;;;;;;;16.48;10.38;;;;;;;3.77;56.21;99515.16;5072701;28;20484;-48
2022/03/03 00:51:43;;;;;;;17.27;10.15;;;;;;;3.87;55.98;99509.72;5072806;28;20510;-48
2022/03/03 00:54:08;;;;;;;16.23;9.65;;;;;;;3.89;56.02;99505.13;5072928;28;20039;-49
2022/03/03 00:56:33;;;;;;;17.00;9.40;;;;;;;3.80;56.37;99504.28;5073303;28;20372;-50
2022/03/03 00:58:59;;;;;;;18.02;9.57;;;;;;;3.77;56.41;99507.28;5072937;28;20024;-49
2022/03/03 01:01:24;;;;;;;17.27;10.02;;;;;;;3.83;56.23;99511.06;5072924;28;20116;-50
2022/03/03 01:03:50;;;;;;;16.13;9.88;;;;;;;3.67;56.54;99503.97;5073450;28;20021;-50
2022/03/03 01:06:15;;;;;;;16.52;9.90;;;;;;;3.59;57.08;99504.78;5058850;28;20449;-51
2022/03/03 01:08:41;;;;;;;17.95;10.00;;;;;;;3.65;56.63;99503.31;5053304;28;20457;-49
2022/03/03 01:11:07;;;;;;;17.48;9.45;;;;;;;3.78;56.48;99500.19;5052796;28;20021;-48
2022/03/03 01:13:32;;;;;;;16.33;9.50;;;;;;;3.59;56.80;99502.16;5052903;28;20059;-49
2022/03/03 01:15:58;;;;;;;16.73;9.55;;;;;;;3.75;56.41;99501.34;5052787;28;20401;-48
2022/03/03 01:18:23;;;;;;;15.77;9.10;;;;;;;3.48;57.12;99494.59;5053053;28;20032;-48
2022/03/03 01:20:49;;;;;;;21.73;9.48;;;;;;;3.53;56.12;99494.94;5053134;28;20025;-49
2022/03/03 01:23:15;;;;;;;15.85;9.05;;;;;;;3.64;56.09;99497.22;5052570;28;20048;-48
2022/03/03 01:25:40;;;;;;;16.17;9.55;;;;;;;3.55;57.05;99489.50;5052909;28;20029;-48
2022/03/03 01:28:06;;;;;;;15.57;8.85;;;;;;;3.84;56.02;99497.69;5052523;28;20029;-49
2022/03/03 01:30:31;;;;;;;15.40;9.05;;;;;;;3.96;55.23;99494.72;5052757;28;20036;-48
2022/03/03 01:32:57;;;;;;;17.40;9.07;;;;;;;3.84;55.05;99492.44;5052542;28;20461;-48
2022/03/03 01:35:22;;;;;;;16.13;8.50;;;;;;;3.61;55.67;99500.19;5058924;28;20025;-51
2022/03/03 01:37:48;;;;;;;15.52;9.10;;;;;;;3.83;56.39;99498.72;5054224;28;20106;-48
2022/03/03 01:40:13;;;;;;;17.10;9.25;;;;;;;4.04;55.50;99500.00;5052671;28;20028;-49
2022/03/03 01:42:39;;;;;;;15.73;9.13;;;;;;;3.94;55.69;99496.72;5052295;28;20082;-49
2022/03/03 01:45:04;;;;;;;16.65;9.27;;;;;;;4.16;55.05;99492.56;5052519;28;20032;-49
2022/03/03 01:47:30;;;;;;;14.73;9.07;;;;;;;3.76;55.92;99489.81;5052543;28;20039;-48
2022/03/03 01:49:56;;;;;;;14.80;9.48;;;;;;;3.82;56.12;99494.41;5052195;28;20020;-49
2022/03/03 01:52:22;;;;;;;14.13;8.93;;;;;;;3.77;56.39;99488.84;5052429;28;20114;-49
2022/03/03 01:54:47;;;;;;;14.38;8.88;;;;;;;3.72;55.92;99488.50;5052656;28;20017;-49
2022/03/03 01:57:13;;;;;;;17.15;9.30;;;;;;;3.66;56.08;99487.38;5052326;28;20020;-49
2022/03/03 01:59:38;;;;;;;14.95;8.77;;;;;;;3.61;56.40;99483.56;5034452;28;20433;-49
2022/03/03 02:02:06;;;;;;;17.70;9.55;;;;;;;3.70;55.84;99490.50;5052141;28;20017;-49
2022/03/03 02:04:32;;;;;;;16.20;9.02;;;;;;;3.72;55.84;99494.59;5051699;28;20071;-51
2022/03/03 02:06:58;;;;;;;16.38;8.93;;;;;;;3.77;56.19;99486.22;5051749;28;20130;-49
2022/03/03 02:09:24;;;;;;;15.52;9.20;;;;;;;3.81;55.62;99481.41;5034078;28;20032;-48
2022/03/03 02:11:49;;;;;;;14.43;8.18;;;;;;;3.55;56.73;99492.94;5033763;28;20029;-48
2022/03/03 02:14:14;;;;;;;17.02;9.20;;;;;;;3.78;55.65;99492.28;5033962;28;20021;-49
2022/03/03 02:16:40;;;;;;;15.07;9.27;;;;;;;3.82;56.04;99491.78;5051889;28;20029;-49
2022/03/03 02:19:06;;;;;;;13.50;8.57;;;;;;;3.42;56.72;99488.16;5051895;28;20037;-48
2022/03/03 02:21:32;;;;;;;15.88;9.15;;;;;;;3.60;56.88;99492.44;5033850;28;20033;-50
2022/03/03 02:23:57;;;;;;;14.73;9.30;;;;;;;3.65;56.43;99490.97;5051084;28;20126;-51
2022/03/03 02:26:23;;;;;;;14.18;8.68;;;;;;;3.31;57.36;99488.47;5051614;28;20037;-50
2022/03/03 02:28:49;;;;;;;13.27;8.63;;;;;;;3.36;57.40;99474.84;5051432;28;20047;-49
2022/03/03 02:31:15;;;;;;;15.18;8.20;;;;;;;3.25;58.05;99476.00;5051720;28;20033;-49
2022/03/03 02:33:40;;;;;;;15.60;8.30;;;;;;;3.50;57.27;99477.66;5051236;28;20025;-49
2022/03/03 02:36:23;;;;;;;16.10;8.50;;;;;;;3.35;56.91;99481.94;5063921;28;20466;-50
2022/03/03 02:38:50;;;;;;;20.17;8.93;;;;;;;3.32;57.71;99477.00;5071716;28;20481;-48
2022/03/03 02:41:15;;;;;;;18.38;8.80;;;;;;;3.48;57.22;99490.16;5071200;28;20025;-47
2022/03/03 02:43:40;;;;;;;15.13;8.85;;;;;;;3.24;57.29;99485.69;5071210;28;20024;-50
2022/03/03 02:46:06;;;;;;;13.70;8.27;;;;;;;3.58;57.08;99479.47;5071217;28;20392;-47
2022/03/03 02:48:32;;;;;;;16.38;8.93;;;;;;;3.49;57.20;99476.00;5071086;28;20032;-49
2022/03/03 02:50:57;;;;;;;15.00;9.00;;;;;;;3.73;56.94;99482.25;5071454;28;20028;-49
2022/03/03 02:53:23;;;;;;;13.90;7.88;;;;;;;3.40;57.42;99476.16;5071051;28;20024;-49
2022/03/03 02:55:48;;;;;;;14.00;7.95;;;;;;;3.52;57.62;99482.75;5071390;28;20190;-48
2022/03/03 02:58:14;;;;;;;15.13;8.77;;;;;;;3.33;57.79;99481.25;5071245;28;20749;-50
2022/03/03 03:00:42;;;;;;;13.68;8.57;;;;;;;3.26;57.67;99475.03;5071220;28;20055;-49
2022/03/03 03:03:09;;;;;;;12.95;7.47;;;;;;;3.24;57.44;99466.47;5070734;28;20036;-50
2022/03/03 03:05:34;;;;;;;15.45;7.90;;;;;;;3.28;57.76;99468.59;5053164;28;20032;-49
2022/03/03 03:07:59;;;;;;;14.90;8.30;;;;;;;3.21;57.62;99477.31;5071236;28;20032;-48
2022/03/03 03:10:25;;;;;;;15.93;8.27;;;;;;;3.04;58.76;99468.56;5066494;28;20031;-50
2022/03/03 03:12:51;;;;;;;16.00;9.32;;;;;;;3.17;58.45;99471.53;5050975;28;20044;-49
2022/03/03 03:15:17;;;;;;;14.23;8.90;;;;;;;3.08;57.93;99443.59;5050830;28;20127;-49
2022/03/03 03:17:42;;;;;;;13.57;8.73;;;;;;;3.24;58.56;99472.53;5050868;28;20024;-48
2022/03/03 03:20:08;;;;;;;15.98;9.02;;;;;;;3.28;58.65;99468.59;5050595;28;20029;-49
2022/03/03 03:22:37;;;;;;;15.15;8.98;;;;;;;3.36;57.98;99467.78;5050614;28;20057;-48
2022/03/03 03:25:03;;;;;;;15.05;8.95;;;;;;;3.56;58.04;99467.44;5051007;28;20108;-49
2022/03/03 03:27:29;;;;;;;16.48;9.02;;;;;;;3.57;57.75;99464.66;5033070;28;20041;-48
2022/03/03 03:29:54;;;;;;;13.00;8.75;;;;;;;3.47;58.08;99464.81;5050985;28;20126;-48
2022/03/03 03:32:20;;;;;;;13.52;8.85;;;;;;;3.54;58.08;99457.09;5050713;28;20056;-48
2022/03/03 03:34:45;;;;;;;19.67;9.50;;;;;;;3.35;58.04;99467.94;5052188;28;20185;-49
2022/03/03 03:37:10;;;;;;;15.48;9.32;;;;;;;3.40;57.56;99484.06;5074853;28;20025;-48
2022/03/03 03:39:36;;;;;;;13.15;8.35;;;;;;;3.49;58.15;99470.75;5071596;28;20040;-48
2022/03/03 03:42:01;;;;;;;14.27;8.38;;;;;;;3.36;57.61;99457.25;5054719;28;20047;-50
2022/03/03 03:44:27;;;;;;;13.75;8.63;;;;;;;3.09;57.93;99466.28;5036403;28;20496;-50
2022/03/03 03:46:52;;;;;;;14.77;7.85;;;;;;;3.23;57.91;99468.25;5054518;28;20055;-48
2022/03/03 03:49:18;;;;;;;13.27;8.00;;;;;;;3.47;56.38;99472.72;5054849;28;20033;-51
2022/03/03 03:51:43;;;;;;;13.15;7.50;;;;;;;3.16;56.74;99466.44;5054495;28;20033;-49
2022/03/03 03:54:09;;;;;;;13.85;7.90;;;;;;;3.17;57.04;99457.56;5054609;28;20021;-51
2022/03/03 03:56:34;;;;;;;14.05;7.53;;;;;;;3.26;56.11;99464.50;5054430;28;20025;-50
2022/03/03 03:59:00;;;;;;;12.80;8.18;;;;;;;3.12;57.00;99461.53;5054404;28;20036;-48
2022/03/03 04:01:26;;;;;;;11.75;7.05;;;;;;;3.20;56.45;99460.72;5054387;28;20037;-49
2022/03/03 04:03:53;;;;;;;13.52;8.02;;;;;;;3.24;57.03;99469.09;5054427;28;20029;-49
2022/03/03 04:06:18;;;;;;;12.85;7.38;;;;;;;3.14;56.68;99456.06;5054631;28;20107;-50
2022/03/03 04:08:44;;;;;;;9.82;6.35;;;;;;;3.25;56.32;99457.56;5054122;28;20063;-48
2022/03/03 04:11:09;;;;;;;13.63;7.18;;;;;;;3.28;56.08;99459.91;5054123;28;20028;-50
2022/03/03 04:13:35;;;;;;;13.90;8.52;;;;;;;3.45;57.78;99466.00;5054067;28;20546;-47
2022/03/03 04:16:00;;;;;;;13.77;7.82;;;;;;;3.41;55.68;99464.66;5036485;28;20032;-48
2022/03/03 04:18:26;;;;;;;14.95;8.05;;;;;;;3.59;55.67;99475.03;5053978;28;20039;-49
2022/03/03 04:20:51;;;;;;;13.18;7.78;;;;;;;3.47;55.86;99471.91;5054154;28;20036;-48
2022/03/03 04:23:17;;;;;;;16.13;8.13;;;;;;;3.27;56.51;99464.31;5053925;28;20417;-51
2022/03/03 04:25:42;;;;;;;13.82;8.80;;;;;;;3.50;56.30;99459.25;5053925;28;20055;-49
2022/03/03 04:28:09;;;;;;;13.48;8.63;;;;;;;3.27;56.37;99463.50;5053624;28;20029;-51
2022/03/03 04:30:34;;;;;;;15.52;8.25;;;;;;;3.38;57.30;99460.53;5053678;28;20059;-49
2022/03/03 04:33:00;;;;;;;14.23;8.48;;;;;;;3.23;56.66;99465.63;5053833;28;20064;-49
2022/03/03 04:35:25;;;;;;;15.60;8.13;;;;;;;3.06;58.42;99464.78;5061004;28;20036;-48
2022/03/03 04:37:51;;;;;;;15.05;8.82;;;;;;;3.38;57.14;99462.38;5073508;28;20455;-49
2022/03/03 04:40:16;;;;;;;15.32;8.63;;;;;;;3.56;55.82;99462.19;5073330;28;20392;-48
2022/03/03 04:42:42;;;;;;;13.75;7.88;;;;;;;3.44;56.23;99465.16;5073469;28;20025;-50
2022/03/03 04:45:08;;;;;;;13.85;8.80;;;;;;;3.37;56.66;99464.19;5073435;28;20013;-48
2022/03/03 04:47:33;;;;;;;14.63;8.57;;;;;;;3.31;56.86;99451.66;5073101;28;20025;-48
2022/03/03 04:49:59;;;;;;;14.52;8.80;;;;;;;3.21;57.09;99453.63;5073258;28;20013;-47
2022/03/03 04:52:24;;;;;;;14.25;8.57;;;;;;;3.28;57.44;99459.91;5072793;28;20035;-49
2022/03/03 04:54:49;;;;;;;21.05;9.32;;;;;;;3.23;57.13;99452.47;5073365;28;20366;-47
2022/03/03 04:57:15;;;;;;;15.10;8.85;;;;;;;3.25;57.93;99450.50;5073415;28;20012;-50
2022/03/03 04:59:41;;;;;;;15.15;9.15;;;;;;;3.15;57.85;99463.00;5073199;28;20407;-48
2022/03/03 05:02:06;;;;;;;17.25;9.02;;;;;;;3.17;57.74;99455.75;5073091;28;20095;-47
2022/03/03 05:04:32;;;;;;;17.52;8.52;;;;;;;3.26;57.61;99460.06;5073260;28;20021;-49
2022/03/03 05:06:57;;;;;;;14.77;8.27;;;;;;;3.22;57.13;99465.78;5072890;28;20517;-49
2022/03/03 05:09:23;;;;;;;15.18;9.07;;;;;;;3.34;57.16;99467.13;5072958;28;20036;-47
2022/03/03 05:11:48;;;;;;;15.18;8.88;;;;;;;3.25;57.41;99460.22;5056959;28;20025;-49
2022/03/03 05:14:14;;;;;;;17.20;9.45;;;;;;;3.36;57.72;99465.16;5053067;28;20021;-48
2022/03/03 05:16:39;;;;;;;17.65;9.95;;;;;;;3.40;57.74;99468.28;5052873;28;20028;-50
2022/03/03 05:19:05;;;;;;;15.63;8.45;;;;;;;3.28;57.64;99457.25;5053017;28;20051;-47
2022/03/03 05:21:31;;;;;;;19.00;10.40;;;;;;;3.18;57.88;99472.34;5052646;28;20056;-49
2022/03/03 05:23:58;;;;;;;14.68;8.65;;;;;;;3.26;57.57;99461.88;5052219;28;20045;-49
2022/03/03 05:26:23;;;;;;;17.45;9.32;;;;;;;3.25;57.46;99468.91;5051658;28;20104;-51
2022/03/03 05:28:49;;;;;;;15.38;9.38;;;;;;;3.46;58.53;99473.69;5051947;28;20021;-51
2022/03/03 05:31:14;;;;;;;15.57;8.82;;;;;;;3.50;57.34;99469.78;5051645;28;20021;-49
2022/03/03 05:33:40;;;;;;;16.88;9.00;;;;;;;3.38;57.18;99468.44;5051679;28;20025;-38
2022/03/03 05:36:06;;;;;;;16.10;9.60;;;;;;;3.55;56.63;99477.16;5046842;28;20017;-37
2022/03/03 05:38:32;;;;;;;14.90;9.20;;;;;;;3.50;57.12;99472.41;5071685;28;20028;-37
2022/03/03 05:40:58;;;;;;;17.63;9.65;;;;;;;3.76;56.83;99479.28;5072301;28;20017;-37
2022/03/03 05:43:24;;;;;;;17.52;9.82;;;;;;;3.95;56.24;99477.31;5071902;28;20025;-37
2022/03/03 05:45:50;;;;;;;16.13;9.82;;;;;;;3.74;56.32;99470.75;5053928;28;20024;-37
2022/03/03 05:48:17;;;;;;;42.17;22.73;;;;;;;3.88;56.73;99480.63;5054009;28;20107;-37
2022/03/03 05:50:42;;;;;;;19.52;10.88;;;;;;;3.96;56.48;99471.88;5071439;28;20024;-37
2022/03/03 05:53:08;;;;;;;152.10;61.88;;;;;;;4.13;57.41;99471.81;5071583;28;20023;-37
2022/03/03 05:55:41;;;;;;;26.48;12.68;;;;;;;4.05;55.68;99464.78;5071549;28;20362;-37
2022/03/03 05:58:06;;;;;;;18.55;10.30;;;;;;;3.97;56.47;99462.16;5062555;28;20056;-38
2022/03/03 06:00:33;;;;;;;17.10;9.18;;;;;;;3.98;55.88;99469.06;5034388;28;20036;-37
2022/03/03 06:02:58;;;;;;;17.73;9.40;;;;;;;3.81;56.70;99468.25;5051900;28;20045;-38
2022/03/03 06:05:25;;;;;;;16.15;9.70;;;;;;;3.98;56.36;99472.53;5051984;28;20506;-43
2022/03/03 06:08:12;;;;;;;15.00;9.10;;;;;;;3.92;56.58;99468.75;5034060;28;20031;-38
2022/03/03 06:10:41;;;;;;;16.20;8.95;;;;;;;4.06;55.69;99461.16;5033292;28;20090;-37
2022/03/03 06:13:32;;;;;;;17.67;9.83;;;;;;;3.74;56.09;99476.00;5033864;28;20111;-37
2022/03/03 06:15:58;;;;;;;16.17;9.90;;;;;;;3.97;56.09;99470.06;5033495;28;20267;-37
2022/03/03 06:18:27;;;;;;;17.88;9.77;;;;;;;3.98;55.69;99469.06;5033432;28;20036;-37
2022/03/03 06:20:52;;;;;;;21.08;10.38;;;;;;;4.33;54.93;99467.81;5051148;28;20043;-38
2022/03/03 06:23:18;;;;;;;18.27;10.25;;;;;;;4.29;54.83;99467.34;5050957;28;20509;-37
2022/03/03 06:25:44;;;;;;;19.95;10.60;;;;;;;4.21;55.56;99474.47;5051057;28;20106;-39
2022/03/03 06:28:10;;;;;;;18.23;10.55;;;;;;;4.43;54.77;99472.91;5050623;28;20024;-37
2022/03/03 06:30:36;;;;;;;25.05;10.60;;;;;;;4.29;55.46;99472.59;5050813;28;20029;-37
2022/03/03 06:33:02;;;;;;;20.80;10.45;;;;;;;4.18;55.52;99461.63;5050469;28;20029;-37
2022/03/03 06:35:28;;;;;;;19.88;10.55;;;;;;;4.24;55.63;99463.56;5058530;28;20074;-36
2022/03/03 06:37:53;;;;;;;21.80;11.38;;;;;;;4.34;56.16;99463.38;5070668;28;20032;-37
2022/03/03 06:40:19;;;;;;;22.90;11.57;;;;;;;4.49;55.52;99474.84;5070394;28;20033;-38
2022/03/03 06:42:44;;;;;;;30.13;15.63;;;;;;;4.73;55.35;99470.47;5069925;28;20024;-38
2022/03/03 06:45:10;;;;;;;34.33;16.25;;;;;;;5.09;54.24;99476.03;5069614;28;20492;-38
2022/03/03 06:47:35;;;;;;;16.65;10.13;;;;;;;4.55;55.38;99474.19;5069742;28;20029;-38
2022/03/03 06:50:02;;;;;;;19.52;10.98;;;;;;;4.88;55.63;99488.03;5069688;28;20028;-38
2022/03/03 06:52:28;;;;;;;16.45;9.55;;;;;;;4.40;55.77;99481.97;5069592;28;20027;-38
2022/03/03 06:54:53;;;;;;;17.73;10.70;;;;;;;4.83;55.44;99479.81;5038209;28;20013;-38
2022/03/03 06:57:22;;;;;;;18.10;10.68;;;;;;;4.83;56.06;99489.53;5049583;28;20053;-38
2022/03/03 06:59:47;;;;;;;17.73;11.00;;;;;;;4.89;55.49;99486.19;5049580;28;20211;-37
2022/03/03 07:02:14;;;;;;;18.60;10.32;;;;;;;5.00;55.44;99485.00;5049478;28;20104;-38
2022/03/03 07:04:39;;;;;;;19.48;10.93;;;;;;;5.27;54.76;99492.44;5031559;28;20039;-38
2022/03/03 07:07:05;;;;;;;22.08;11.55;;;;;;;5.49;53.63;99498.69;5049596;28;20408;-38
2022/03/03 07:09:30;;;;;;;18.33;11.02;;;;;;;5.37;54.38;99504.53;5031720;28;20091;-37
2022/03/03 07:11:56;;;;;;;18.25;11.50;;;;;;;5.44;54.29;99495.75;5049775;28;20086;-37
2022/03/03 07:14:21;;;;;;;18.33;11.32;;;;;;;5.18;55.38;99497.91;5031560;28;20021;-37
2022/03/03 07:16:59;;;;;;;23.52;12.02;;;;;;;5.09;55.78;99497.16;5049453;28;20105;-38
2022/03/03 07:19:30;;;;;;;20.45;12.45;;;;;;;5.34;55.40;99491.72;5049634;28;20452;-37
2022/03/03 07:22:07;;;;;;;30.33;14.90;;;;;;;5.39;55.24;99500.75;5051598;28;20036;-37
2022/03/03 07:24:34;;;;;;;19.85;12.50;;;;;;;4.89;56.43;99471.22;5069680;28;20031;-36
2022/03/03 07:27:01;;;;;;;20.60;11.85;;;;;;;5.36;56.03;99497.63;5069340;28;20017;-37
2022/03/03 07:29:30;;;;;;;16.85;10.60;;;;;;;5.82;55.02;99508.97;5069672;28;20139;-36
2022/03/03 07:31:56;;;;;;;19.40;11.35;;;;;;;6.14;54.65;99503.63;5069851;28;20027;-37
2022/03/03 07:34:29;;;;;;;17.83;11.05;;;;;;;6.68;53.12;99497.25;5069862;28;20473;-37
2022/03/03 07:37:02;;;;;;;18.60;11.45;;;;;;;7.04;51.61;99489.31;5049924;28;20073;-38
2022/03/03 07:39:30;;;;;;;20.35;11.00;;;;;;;6.52;53.12;99488.50;5048600;28;20508;-38
2022/03/03 07:41:58;;;;;;;16.92;11.15;;;;;;;6.45;53.31;99498.16;5048820;28;20024;-38
2022/03/03 07:44:24;;;;;;;16.98;10.88;;;;;;;6.37;53.55;99500.91;5042616;28;20080;-38
2022/03/03 07:46:49;;;;;;;17.58;9.55;;;;;;;6.46;52.83;99500.63;5031777;28;20073;-38
2022/03/03 07:49:15;;;;;;;17.48;10.75;;;;;;;6.53;52.62;99494.59;5028794;28;20025;-38
2022/03/03 07:51:40;;;;;;;16.70;9.82;;;;;;;6.50;52.64;99494.97;5046811;28;20130;-38
2022/03/03 07:54:06;;;;;;;17.65;9.57;;;;;;;7.21;52.15;99503.16;5069619;28;20028;-49
2022/03/03 07:56:37;;;;;;;17.48;10.57;;;;;;;7.45;50.61;99496.69;5069936;28;20661;-50
2022/03/03 07:59:04;;;;;;;21.27;10.80;;;;;;;7.83;49.78;99512.31;5068771;28;20029;-49
2022/03/03 08:01:32;;;;;;;22.42;10.95;;;;;;;7.70;49.41;99510.34;5069896;28;20036;-49
2022/03/03 08:04:00;;;;;;;18.10;11.43;;;;;;;7.90;49.37;99507.03;5068324;28;20105;-49
2022/03/03 08:06:25;;;;;;;18.70;11.65;;;;;;;7.55;49.61;99504.31;5069859;28;20458;-50
2022/03/03 08:08:52;;;;;;;18.80;11.18;;;;;;;7.32;49.72;99499.19;5051313;28;20656;-51
2022/03/03 08:11:19;;;;;;;18.17;11.10;;;;;;;7.22;50.47;99502.97;5056379;28;20028;-48
2022/03/03 08:13:46;;;;;;;19.25;11.75;;;;;;;7.10;50.24;99498.34;5049715;28;20088;-37
2022/03/03 08:16:11;;;;;;;19.60;11.80;;;;;;;6.95;51.02;99512.44;5032049;28;20021;-38
2022/03/03 08:18:37;;;;;;;25.15;11.85;;;;;;;6.95;50.91;99508.97;5049907;28;20397;-48
2022/03/03 08:21:06;;;;;;;17.83;10.57;;;;;;;6.89;51.50;99507.06;5049241;28;20056;-49
2022/03/03 08:23:31;;;;;;;20.52;11.68;;;;;;;6.96;50.86;99510.63;5036570;28;20469;-49
2022/03/03 08:25:57;;;;;;;16.33;10.27;;;;;;;6.89;50.96;99510.53;5033315;28;20544;-47
2022/03/03 08:28:24;;;;;;;16.40;10.32;;;;;;;7.08;51.12;99508.31;5033148;28;20041;-49
2022/03/03 08:30:56;;;;;;;20.27;10.95;;;;;;;6.69;51.81;99510.28;5033051;28;20104;-49
2022/03/03 08:33:34;;;;;;;16.25;10.45;;;;;;;6.82;51.60;99505.16;5016001;28;20393;-50
2022/03/03 08:36:00;;;;;;;19.10;10.60;;;;;;;7.41;50.26;99511.31;5057037;28;20095;-50
2022/03/03 08:38:48;;;;;;;15.65;9.95;;;;;;;7.34;49.63;99500.66;5073178;28;20413;-48
2022/03/03 08:41:13;;;;;;;15.70;9.63;;;;;;;6.82;50.50;99513.09;5055012;28;20030;-38
2022/03/03 08:43:39;;;;;;;16.15;9.65;;;;;;;6.68;50.67;99505.16;5072882;28;20035;-38
2022/03/03 08:46:08;;;;;;;21.23;11.40;;;;;;;6.62;51.39;99506.72;5055182;28;20037;-37
2022/03/03 08:48:34;;;;;;;20.15;11.05;;;;;;;6.46;51.01;99502.47;5072998;28;20078;-38
2022/03/03 08:51:00;;;;;;;19.60;10.88;;;;;;;6.43;51.61;99508.91;5054510;28;20052;-38
2022/03/03 08:53:25;;;;;;;19.00;9.98;;;;;;;6.65;51.54;99504.53;5072675;28;20098;-48
2022/03/03 08:55:51;;;;;;;18.33;9.63;;;;;;;6.63;51.31;99503.09;5072536;28;20032;-49
2022/03/03 08:58:17;;;;;;;16.38;9.52;;;;;;;6.35;52.03;99502.91;5072075;28;20035;-49
2022/03/03 09:00:43;;;;;;;18.08;10.38;;;;;;;6.94;51.41;99508.16;5072417;28;20113;-48
2022/03/03 09:03:08;;;;;;;22.40;10.20;;;;;;;6.97;50.59;99504.34;5072398;28;20029;-49
2022/03/03 09:05:34;;;;;;;17.92;10.60;;;;;;;6.93;51.54;99516.25;5072548;28;20117;-49
2022/03/03 09:07:59;;;;;;;18.10;11.07;;;;;;;7.17;51.64;99517.78;5072743;28;20028;-49
2022/03/03 09:10:25;;;;;;;18.00;11.10;;;;;;;8.02;48.90;99513.47;5068049;28;20024;-49
2022/03/03 09:12:51;;;;;;;18.27;10.82;;;;;;;7.79;49.84;99506.56;5052193;28;20033;-49
2022/03/03 09:15:16;;;;;;;17.40;10.63;;;;;;;7.45;50.24;99509.94;5052478;28;20016;-50
2022/03/03 09:17:42;;;;;;;20.38;10.50;;;;;;;7.11;51.52;99507.94;5052369;28;20025;-49
2022/03/03 09:20:09;;;;;;;18.23;10.15;;;;;;;7.15;50.68;99511.84;5017948;28;20032;-38
2022/03/03 09:22:35;;;;;;;16.20;8.77;;;;;;;7.17;49.79;99517.78;5052206;28;20048;-38
2022/03/03 09:25:02;;;;;;;11.82;7.43;;;;;;;6.97;49.40;99518.38;5052381;28;20048;-37
2022/03/03 09:27:28;;;;;;;11.30;7.32;;;;;;;7.65;47.59;99515.41;5052045;28;20025;-36
2022/03/03 09:29:54;;;;;;;13.77;7.28;;;;;;;7.61;47.75;99522.09;5051986;28;20021;-37
2022/03/03 09:32:19;;;;;;;13.15;7.60;;;;;;;7.36;48.71;99514.50;5051628;28;20024;-37
2022/03/03 09:34:45;;;;;;;13.35;7.57;;;;;;;7.51;48.83;99522.41;5053490;28;20017;-37
2022/03/03 09:37:14;;;;;;;13.40;7.90;;;;;;;7.84;47.76;99519.22;5071704;28;20025;-36
2022/03/03 09:39:39;;;;;;;12.65;7.65;;;;;;;7.65;48.46;99528.63;5072022;28;20020;-37
2022/03/03 09:42:05;;;;;;;13.98;7.43;;;;;;;7.44;48.02;99518.88;5072068;28;20369;-37
2022/03/03 09:44:30;;;;;;;11.18;6.75;;;;;;;7.66;47.82;99511.75;5066687;28;20074;-47
2022/03/03 09:46:56;;;;;;;12.75;7.15;;;;;;;7.98;47.02;99512.22;5051621;28;20090;-48
2022/03/03 09:49:21;;;;;;;12.43;7.13;;;;;;;7.73;47.79;99517.94;5051294;28;20017;-49
2022/03/03 09:51:50;;;;;;;11.75;7.20;;;;;;;8.07;46.95;99510.25;5054173;28;20051;-49
2022/03/03 09:54:16;;;;;;;12.93;8.05;;;;;;;8.26;46.81;99511.41;5056820;28;20021;-48
2022/03/03 09:56:41;;;;;;;13.98;8.00;;;;;;;8.27;47.54;99521.81;5051413;28;20524;-48
2022/03/03 09:59:07;;;;;;;12.05;7.57;;;;;;;8.59;46.73;99512.44;5053896;28;20029;-38
2022/03/03 10:01:33;;;;;;;11.27;6.90;;;;;;;9.22;44.62;99511.47;5050930;28;20021;-38
2022/03/03 10:04:12;;;;;;;10.13;6.30;;;;;;;8.36;45.52;99518.00;5051766;28;20029;-36
2022/03/03 10:06:44;;;;;;;11.00;6.43;;;;;;;8.46;45.41;99517.69;5050877;28;20059;-38
2022/03/03 10:09:09;;;;;;;11.50;7.13;;;;;;;8.01;46.42;99514.47;5050794;28;20025;-38
2022/03/03 10:11:57;;;;;;;10.95;7.25;;;;;;;7.56;47.64;99522.66;5051155;28;20032;-40
2022/03/03 10:14:31;;;;;;;11.07;6.57;;;;;;;7.96;46.05;99511.59;5051024;28;20025;-38
2022/03/03 10:16:57;;;;;;;11.70;7.00;;;;;;;8.57;45.00;99500.41;5050862;28;20416;-37
2022/03/03 10:19:22;;;;;;;10.82;6.55;;;;;;;8.50;45.13;99500.34;5051153;28;20094;-38
2022/03/03 10:21:48;;;;;;;11.77;7.07;;;;;;;8.49;46.42;99505.84;5052567;28;20075;-37
2022/03/03 10:24:22;;;;;;;11.23;6.20;;;;;;;8.53;44.99;99513.25;5060406;28;20068;-38
2022/03/03 10:26:58;;;;;;;10.75;6.32;;;;;;;8.20;46.01;99510.34;5065834;28;20020;-37
2022/03/03 10:29:24;;;;;;;13.30;6.75;;;;;;;8.54;45.55;99498.94;5038211;28;20028;-38
2022/03/03 10:31:51;;;;;;;11.07;6.80;;;;;;;9.05;44.74;99503.06;5070929;28;20069;-37
2022/03/03 10:34:25;;;;;;;13.82;7.03;;;;;;;9.63;43.64;99501.72;5059772;28;20024;-37
2022/03/03 10:37:01;;;;;;;12.70;7.10;;;;;;;9.61;43.53;99488.66;5069874;28;20441;-38
2022/03/03 10:39:48;;;;;;;11.07;7.25;;;;;;;9.37;42.95;99490.06;5051556;28;20446;-38
2022/03/03 10:42:18;;;;;;;15.60;8.27;;;;;;;9.33;42.98;99486.19;5050372;28;20029;-38
2022/03/03 10:44:43;;;;;;;12.05;7.50;;;;;;;9.14;43.08;99485.94;5049902;28;20104;-39
2022/03/03 10:47:16;;;;;;;14.38;7.25;;;;;;;9.14;44.03;99479.81;5032879;28;20366;-37
2022/03/03 10:49:48;;;;;;;12.18;7.00;;;;;;;9.13;44.38;99481.63;5050979;28;20068;-36
2022/03/03 10:52:17;;;;;;;14.57;7.28;;;;;;;8.77;44.44;99477.41;5042014;28;20439;-37
2022/03/03 10:54:48;;;;;;;11.23;6.78;;;;;;;8.70;44.55;99475.75;5050991;28;20029;-37
2022/03/03 10:57:29;;;;;;;12.70;6.78;;;;;;;8.68;44.52;99472.47;5050573;28;20024;-37
2022/03/03 10:59:55;;;;;;;12.15;7.22;;;;;;;8.68;43.53;99467.19;5050774;28;20480;-39
2022/03/03 11:02:21;;;;;;;16.65;7.63;;;;;;;8.67;43.86;99474.31;5016422;28;20025;-37
2022/03/03 11:04:46;;;;;;;14.23;8.23;;;;;;;8.91;44.07;99480.97;5032729;28;20032;-38
2022/03/03 11:07:14;;;;;;;12.10;7.43;;;;;;;9.32;43.02;99474.72;5016291;28;20028;-38
2022/03/03 11:09:39;;;;;;;10.32;6.10;;;;;;;9.19;43.27;99464.91;5050559;28;20035;-37
2022/03/03 11:12:06;;;;;;;9.70;6.60;;;;;;;9.04;42.81;99474.84;5051278;28;20033;-37
2022/03/03 11:14:32;;;;;;;10.73;6.45;;;;;;;8.69;43.45;99459.03;5070662;28;20077;-37
2022/03/03 11:16:58;;;;;;;12.43;7.32;;;;;;;9.12;43.27;99473.84;5035797;28;20107;-37
2022/03/03 11:19:23;;;;;;;15.43;7.72;;;;;;;9.26;42.34;99474.72;5036386;28;20103;-37
2022/03/03 11:21:49;;;;;;;13.02;7.57;;;;;;;9.66;41.85;99466.81;5052424;28;20376;-38
2022/03/03 11:24:17;;;;;;;12.63;7.10;;;;;;;9.38;42.01;99463.28;5070570;28;20032;-38
2022/03/03 11:26:44;;;;;;;11.20;7.32;;;;;;;9.18;42.51;99454.50;5050654;28;20035;-38
2022/03/03 11:29:13;;;;;;;14.27;7.82;;;;;;;9.04;42.70;99455.47;5049450;28;20052;-37